createdAt,value
2023-02-05T00:02:17.960Z,4.50
2023-02-05T00:05:47.053Z,4.50
2023-02-05T00:08:39.458Z,4.60
2023-02-05T00:11:33.874Z,4.60
2023-02-05T00:14:30.114Z,4.60
2023-02-05T00:17:48.460Z,4.60
2023-02-05T00:20:40.295Z,4.60
2023-02-05T00:23:48.910Z,4.60
2023-02-05T00:27:15.992Z,4.60
2023-02-05T00:30:21.992Z,4.60
2023-02-05T00:33:17.320Z,4.60
2023-02-05T00:36:19.097Z,4.60
2023-02-05T00:39:28.287Z,4.60
2023-02-05T00:45:28.428Z,4.50
2023-02-05T00:48:30.129Z,4.50
2023-02-05T00:51:30.450Z,4.50
2023-02-05T00:57:45.771Z,4.50
2023-02-05T01:03:32.951Z,4.50
2023-02-05T01:06:28.407Z,4.50
2023-02-05T01:09:30.759Z,4.50
2023-02-05T01:12:32.884Z,4.60
2023-02-05T01:15:19.975Z,4.60
2023-02-05T01:18:14.946Z,4.60
2023-02-05T01:21:09.445Z,4.50
2023-02-05T01:24:30.798Z,4.50
2023-02-05T01:27:18.834Z,4.50
2023-02-05T01:30:14.162Z,4.50
2023-02-05T01:33:30.081Z,4.50
2023-02-05T01:36:20.025Z,4.50
2023-02-05T01:39:18.297Z,4.40
2023-02-05T01:42:35.558Z,4.40
2023-02-05T01:46:19.593Z,4.40
2023-02-05T01:49:25.782Z,4.40
2023-02-05T01:52:41.644Z,4.40
2023-02-05T01:55:43.353Z,4.40
2023-02-05T01:58:53.910Z,4.40
2023-02-05T02:01:44.931Z,4.40
2023-02-05T02:05:27.374Z,4.40
2023-02-05T02:09:11.764Z,4.40
2023-02-05T02:11:39.824Z,4.40
2023-02-05T02:14:38.024Z,4.40
2023-02-05T02:17:40.229Z,4.40
2023-02-05T02:20:45.636Z,4.40
2023-02-05T02:24:21.755Z,4.30
2023-02-05T02:31:30.350Z,4.30
2023-02-05T02:34:53.686Z,4.30
2023-02-05T02:37:55.321Z,4.30
2023-02-05T02:48:33.417Z,4.30
2023-02-05T02:51:38.878Z,4.30
2023-02-05T02:58:03.722Z,4.30
2023-02-05T03:01:01.444Z,4.40
2023-02-05T03:08:24.204Z,4.40
2023-02-05T03:11:07.398Z,4.40
2023-02-05T03:14:04.418Z,4.40
2023-02-05T03:16:44.893Z,4.40
2023-02-05T03:19:20.118Z,4.50
2023-02-05T03:22:01.541Z,4.50
2023-02-05T03:24:38.009Z,4.40
2023-02-05T03:27:12.900Z,4.40
2023-02-05T03:29:48.382Z,4.50
2023-02-05T03:33:07.432Z,4.50
2023-02-05T03:35:58.228Z,4.40
2023-02-05T03:39:12.087Z,4.40
2023-02-05T03:42:32.057Z,4.40
2023-02-05T03:45:31.949Z,4.30
2023-02-05T03:48:31.368Z,4.30
2023-02-05T03:51:26.403Z,4.20
2023-02-05T03:54:09.625Z,4.20
2023-02-05T03:57:16.019Z,4.20
2023-02-05T03:59:53.466Z,4.10
2023-02-05T04:02:28.733Z,4.10
2023-02-05T04:05:04.959Z,4.10
2023-02-05T04:07:39.876Z,4.00
2023-02-05T04:10:17.894Z,4.00
2023-02-05T04:12:53.918Z,4.00
2023-02-05T04:15:30.668Z,3.90
2023-02-05T04:18:08.274Z,3.90
2023-02-05T04:20:43.259Z,3.80
2023-02-05T04:23:19.151Z,3.70
2023-02-05T04:25:55.363Z,3.70
2023-02-05T04:28:37.776Z,3.70
2023-02-05T04:31:14.275Z,3.60
2023-02-05T04:33:51.101Z,3.60
2023-02-05T04:36:27.251Z,3.60
2023-02-05T04:39:02.619Z,3.50
2023-02-05T04:41:38.033Z,3.50
2023-02-05T04:44:12.901Z,3.50
2023-02-05T04:46:47.834Z,3.50
2023-02-05T04:49:22.715Z,3.60
2023-02-05T04:51:57.564Z,3.60
2023-02-05T04:54:32.418Z,3.60
2023-02-05T04:57:07.283Z,3.60
2023-02-05T04:59:42.127Z,3.60
2023-02-05T05:02:17.215Z,3.70
2023-02-05T05:04:52.171Z,3.60
2023-02-05T05:07:30.188Z,3.70
2023-02-05T05:10:07.260Z,3.70
2023-02-05T05:12:42.251Z,3.70
2023-02-05T05:15:17.100Z,3.70
2023-02-05T05:17:51.960Z,3.70
2023-02-05T05:20:26.885Z,3.80
2023-02-05T05:23:02.179Z,3.80
2023-02-05T05:25:43.091Z,3.80
2023-02-05T05:28:18.678Z,3.80
2023-02-05T05:30:53.549Z,3.80
2023-02-05T05:33:28.390Z,3.80
2023-02-05T05:36:03.728Z,3.80
2023-02-05T05:38:38.591Z,3.80
2023-02-05T05:41:43.252Z,3.90
2023-02-05T05:44:18.123Z,3.90
2023-02-05T05:46:52.982Z,3.90
2023-02-05T05:49:27.936Z,3.90
2023-02-05T05:52:02.860Z,3.90
2023-02-05T05:54:37.976Z,4.00
2023-02-05T05:57:12.911Z,4.00
2023-02-05T05:59:47.774Z,4.00
2023-02-05T06:02:22.727Z,4.00
2023-02-05T06:04:57.624Z,3.90
2023-02-05T06:07:32.470Z,3.90
2023-02-05T06:10:07.928Z,3.90
2023-02-05T06:12:42.831Z,3.90
2023-02-05T06:15:17.944Z,3.90
2023-02-05T06:17:53.647Z,3.90
2023-02-05T06:20:28.642Z,3.80
2023-02-05T06:23:03.529Z,3.80
2023-02-05T06:25:38.450Z,3.80
2023-02-05T06:28:13.490Z,3.80
2023-02-05T06:30:48.498Z,3.80
2023-02-05T06:33:23.416Z,3.90
2023-02-05T06:35:58.350Z,3.90
2023-02-05T06:38:33.208Z,3.90
2023-02-05T06:41:08.082Z,4.00
2023-02-05T06:43:42.958Z,4.00
2023-02-05T06:46:17.861Z,4.00
2023-02-05T06:48:52.854Z,4.10
2023-02-05T06:51:27.888Z,4.10
2023-02-05T06:54:02.737Z,4.10
2023-02-05T06:56:37.955Z,4.10
2023-02-05T06:59:12.813Z,4.20
2023-02-05T07:01:47.871Z,4.20
2023-02-05T07:04:22.797Z,4.20
2023-02-05T07:06:58.478Z,4.20
2023-02-05T07:09:33.601Z,4.20
2023-02-05T07:12:08.654Z,4.30
2023-02-05T07:14:43.800Z,4.30
2023-02-05T07:17:20.821Z,4.30
2023-02-05T07:19:55.820Z,4.30
2023-02-05T07:22:30.716Z,4.30
2023-02-05T07:25:06.059Z,4.30
2023-02-05T07:27:41.059Z,4.30
2023-02-05T07:30:16.219Z,4.30
2023-02-05T07:32:51.085Z,4.40
2023-02-05T07:35:26.246Z,4.40
2023-02-05T07:38:01.232Z,4.40
2023-02-05T07:40:37.442Z,4.40
2023-02-05T07:43:12.406Z,4.50
2023-02-05T07:45:47.771Z,4.50
2023-02-05T07:48:22.669Z,4.50
2023-02-05T07:50:57.610Z,4.60
2023-02-05T07:53:32.857Z,4.60
2023-02-05T07:56:08.003Z,4.60
2023-02-05T07:58:43.252Z,4.60
2023-02-05T08:01:18.215Z,4.70
2023-02-05T08:03:53.171Z,4.70
2023-02-05T08:06:28.296Z,4.70
2023-02-05T08:09:03.323Z,4.70
2023-02-05T08:11:38.394Z,4.70
2023-02-05T08:14:13.245Z,4.80
2023-02-05T08:16:48.242Z,4.80
2023-02-05T08:19:23.226Z,4.80
2023-02-05T08:21:58.106Z,4.80
2023-02-05T08:24:33.151Z,4.80
2023-02-05T08:27:08.105Z,4.80
2023-02-05T08:29:43.034Z,4.90
2023-02-05T08:32:18.058Z,4.90
2023-02-05T08:34:53.122Z,5.00
2023-02-05T08:37:28.146Z,5.10
2023-02-05T08:40:03.278Z,5.10
2023-02-05T08:42:38.234Z,5.20
2023-02-05T08:45:14.087Z,5.30
2023-02-05T08:47:48.983Z,5.30
2023-02-05T08:50:24.008Z,5.30
2023-02-05T08:52:58.986Z,5.30
2023-02-05T08:55:34.187Z,5.30
2023-02-05T08:58:09.248Z,5.40
2023-02-05T09:00:44.262Z,5.40
2023-02-05T09:03:19.645Z,5.40
2023-02-05T09:05:54.622Z,5.50
2023-02-05T09:08:31.205Z,5.50
2023-02-05T09:11:07.759Z,5.60
2023-02-05T09:13:42.717Z,5.60
2023-02-05T09:16:17.642Z,5.60
2023-02-05T09:18:59.614Z,5.60
2023-02-05T09:21:34.934Z,5.60
2023-02-05T09:24:10.039Z,5.60
2023-02-05T09:26:44.921Z,5.60
2023-02-05T09:29:19.980Z,5.60
2023-02-05T09:31:55.036Z,5.60
2023-02-05T09:34:32.355Z,5.60
2023-02-05T09:37:07.236Z,5.50
2023-02-05T09:40:18.978Z,5.50
2023-02-05T09:43:00.958Z,5.40
2023-02-05T09:45:55.290Z,5.30
2023-02-05T09:48:51.180Z,5.30
2023-02-05T09:51:41.563Z,5.30
2023-02-05T09:54:25.172Z,5.30
2023-02-05T09:57:10.569Z,5.30
2023-02-05T09:59:47.918Z,5.30
2023-02-05T10:02:37.644Z,5.30
2023-02-05T10:05:14.809Z,5.40
2023-02-05T10:08:05.686Z,5.40
2023-02-05T10:10:47.211Z,5.50
2023-02-05T10:13:37.342Z,5.50
2023-02-05T10:16:58.539Z,5.60
2023-02-05T10:20:04.128Z,5.50
2023-02-05T10:23:17.001Z,5.50
2023-02-05T10:26:14.541Z,5.60
2023-02-05T10:29:12.208Z,5.60
2023-02-05T10:32:04.404Z,5.70
2023-02-05T10:34:56.702Z,5.60
2023-02-05T10:37:42.006Z,5.60
2023-02-05T10:40:23.845Z,5.70
2023-02-05T10:43:15.805Z,5.70
2023-02-05T10:45:52.656Z,5.70
2023-02-05T10:48:47.067Z,5.80
2023-02-05T10:51:30.961Z,5.80
2023-02-05T10:54:18.056Z,5.80
2023-02-05T10:56:52.949Z,5.80
2023-02-05T10:59:34.683Z,5.90
2023-02-05T11:02:11.628Z,5.90
2023-02-05T11:05:01.565Z,5.90
2023-02-05T11:07:47.767Z,6.00
2023-02-05T11:10:27.462Z,6.00
2023-02-05T11:13:21.936Z,6.00
2023-02-05T11:16:12.573Z,6.10
2023-02-05T11:19:00.589Z,6.10
2023-02-05T11:21:58.370Z,6.20
2023-02-05T11:24:39.350Z,6.20
2023-02-05T11:27:27.024Z,6.30
2023-02-05T11:30:54.588Z,6.30
2023-02-05T11:33:22.737Z,6.40
2023-02-05T11:36:16.293Z,6.50
2023-02-05T11:38:57.701Z,6.60
2023-02-05T11:41:56.261Z,6.70
2023-02-05T11:44:32.265Z,6.80
2023-02-05T11:47:09.327Z,6.90
2023-02-05T11:49:51.595Z,6.90
2023-02-05T11:52:37.226Z,6.90
2023-02-05T11:55:33.643Z,6.90
2023-02-05T11:58:36.951Z,6.90
2023-02-05T12:01:29.168Z,6.90
2023-02-05T12:04:13.150Z,7.00
2023-02-05T12:06:56.246Z,6.90
2023-02-05T12:09:31.639Z,6.90
2023-02-05T12:12:31.477Z,6.90
2023-02-05T12:15:20.681Z,6.90
2023-02-05T12:18:28.453Z,6.90
2023-02-05T12:21:40.437Z,6.90
2023-02-05T12:24:46.007Z,6.90
2023-02-05T12:28:14.190Z,6.90
2023-02-05T12:31:05.371Z,6.80
2023-02-05T12:34:00.103Z,6.70
2023-02-05T12:36:54.418Z,6.60
2023-02-05T12:39:46.411Z,6.60
2023-02-05T12:42:38.100Z,6.60
2023-02-05T12:45:42.060Z,6.70
2023-02-05T12:48:42.868Z,6.70
2023-02-05T12:52:12.983Z,6.70
2023-02-05T12:55:17.822Z,6.70
2023-02-05T12:58:10.794Z,6.80
2023-02-05T13:00:57.517Z,6.80
2023-02-05T13:03:58.019Z,6.90
2023-02-05T13:06:39.195Z,6.90
2023-02-05T13:09:30.872Z,6.90
2023-02-05T13:12:18.057Z,7.00
2023-02-05T13:15:18.916Z,6.90
2023-02-05T13:18:05.726Z,6.90
2023-02-05T13:21:19.013Z,6.90
2023-02-05T13:24:41.993Z,6.90
2023-02-05T13:27:49.400Z,6.90
2023-02-05T13:30:50.581Z,6.90
2023-02-05T13:33:25.712Z,6.80
2023-02-05T13:36:22.339Z,6.70
2023-02-05T13:39:24.345Z,6.60
2023-02-05T13:42:32.494Z,6.40
2023-02-05T13:45:33.953Z,6.30
2023-02-05T13:49:02.960Z,6.20
2023-02-05T13:52:05.304Z,6.00
2023-02-05T13:55:24.647Z,5.80
2023-02-05T13:58:42.995Z,5.80
2023-02-05T14:01:29.419Z,5.80
2023-02-05T14:04:18.808Z,5.80
2023-02-05T14:07:26.956Z,5.80
2023-02-05T14:10:02.684Z,5.70
2023-02-05T14:12:38.375Z,5.60
2023-02-05T14:15:16.429Z,5.50
2023-02-05T14:17:54.230Z,5.50
2023-02-05T14:20:39.358Z,5.40
2023-02-05T14:23:46.279Z,5.20
2023-02-05T14:26:46.289Z,5.10
2023-02-05T14:29:48.197Z,5.00
2023-02-05T14:32:28.910Z,5.00
2023-02-05T14:35:27.464Z,5.00
2023-02-05T14:38:16.262Z,5.00
2023-02-05T14:41:13.098Z,4.90
2023-02-05T14:44:21.438Z,4.80
2023-02-05T14:47:19.978Z,4.80
2023-02-05T14:50:18.667Z,4.80
2023-02-05T14:52:58.913Z,4.70
2023-02-05T14:55:43.359Z,4.70
2023-02-05T14:58:39.393Z,4.70
2023-02-05T15:01:33.319Z,4.70
2023-02-05T15:04:24.539Z,4.70
2023-02-05T15:07:08.736Z,4.70
2023-02-05T15:09:53.466Z,4.70
2023-02-05T15:12:55.559Z,4.70
2023-02-05T15:15:35.646Z,4.70
2023-02-05T15:18:28.988Z,4.70
2023-02-05T15:21:05.155Z,4.70
2023-02-05T15:23:46.589Z,4.80
2023-02-05T15:26:27.700Z,4.80
2023-02-05T15:29:32.920Z,4.70
2023-02-05T15:32:23.833Z,4.80
2023-02-05T15:35:19.384Z,4.80
2023-02-05T15:38:38.932Z,4.80
2023-02-05T15:41:16.281Z,4.80
2023-02-05T15:44:02.829Z,4.80
2023-02-05T15:46:37.896Z,4.80
2023-02-05T15:49:14.503Z,4.80
2023-02-05T15:51:49.504Z,4.80
2023-02-05T15:54:25.556Z,4.80
2023-02-05T15:57:00.509Z,4.80
2023-02-05T15:59:35.488Z,4.90
2023-02-05T16:02:22.215Z,4.80
2023-02-05T16:04:59.956Z,4.80
2023-02-05T16:07:43.112Z,4.80
2023-02-05T16:10:23.428Z,4.80
2023-02-05T16:13:14.907Z,4.90
2023-02-05T16:15:59.940Z,4.90
2023-02-05T16:18:46.419Z,4.90
2023-02-05T16:21:33.694Z,5.00
2023-02-05T16:24:33.280Z,4.90
2023-02-05T16:27:28.269Z,4.90
2023-02-05T16:30:14.919Z,5.00
2023-02-05T16:32:53.804Z,5.00
2023-02-05T16:35:38.627Z,5.00
2023-02-05T16:38:20.777Z,5.00
2023-02-05T16:41:31.209Z,5.00
2023-02-05T16:44:09.675Z,4.90
2023-02-05T16:46:44.643Z,4.90
2023-02-05T16:49:28.118Z,4.90
2023-02-05T16:52:04.347Z,4.90
2023-02-05T16:54:41.746Z,4.90
2023-02-05T16:57:34.728Z,4.90
2023-02-05T17:00:29.603Z,4.90
2023-02-05T17:03:17.102Z,5.00
2023-02-05T17:06:00.714Z,5.10
2023-02-05T17:08:37.554Z,5.10
2023-02-05T17:11:41.883Z,5.10
2023-02-05T17:14:29.913Z,5.10
2023-02-05T17:17:27.026Z,5.10
2023-02-05T17:20:25.869Z,5.10
2023-02-05T17:23:00.840Z,5.20
2023-02-05T17:25:51.126Z,5.20
2023-02-05T17:28:29.866Z,5.20
2023-02-05T17:31:06.589Z,5.20
2023-02-05T17:33:41.544Z,5.20
2023-02-05T17:36:17.582Z,5.20
2023-02-05T17:38:52.995Z,5.20
2023-02-05T17:41:54.291Z,5.20
2023-02-05T17:44:29.398Z,5.30
2023-02-05T17:47:06.549Z,5.30
2023-02-05T17:49:42.387Z,5.30
2023-02-05T17:52:17.435Z,5.30
2023-02-05T17:54:52.400Z,5.20
2023-02-05T17:57:27.417Z,5.20
2023-02-05T18:00:04.926Z,5.30
2023-02-05T18:02:47.306Z,5.30
2023-02-05T18:05:23.315Z,5.40
2023-02-05T18:07:59.609Z,5.40
2023-02-05T18:10:35.195Z,5.40
2023-02-05T18:13:10.491Z,5.40
2023-02-05T18:15:45.515Z,5.40
2023-02-05T18:18:20.807Z,5.40
2023-02-05T18:20:55.850Z,5.40
2023-02-05T18:23:31.189Z,5.40
2023-02-05T18:26:07.093Z,5.40
2023-02-05T18:28:42.009Z,5.40
2023-02-05T18:31:17.048Z,5.40
2023-02-05T18:33:53.303Z,5.30
2023-02-05T18:36:28.271Z,5.30
2023-02-05T18:39:03.447Z,5.30
2023-02-05T18:41:38.972Z,5.30
2023-02-05T18:44:15.954Z,5.30
2023-02-05T18:46:51.029Z,5.30
2023-02-05T18:49:26.005Z,5.30
2023-02-05T18:52:02.289Z,5.20
2023-02-05T18:54:37.594Z,5.10
2023-02-05T18:57:12.805Z,5.20
2023-02-05T18:59:48.573Z,5.10
2023-02-05T19:02:23.504Z,5.10
2023-02-05T19:04:58.789Z,5.10
2023-02-05T19:07:34.441Z,5.10
2023-02-05T19:10:09.584Z,5.20
2023-02-05T19:12:44.601Z,5.10
2023-02-05T19:15:19.704Z,5.00
2023-02-05T19:17:54.890Z,5.00
2023-02-05T19:20:29.860Z,5.00
2023-02-05T19:23:04.857Z,5.00
2023-02-05T19:25:39.839Z,5.00
2023-02-05T19:28:14.809Z,5.00
2023-02-05T19:30:49.880Z,5.00
2023-02-05T19:33:24.840Z,5.00
2023-02-05T19:36:01.780Z,5.00
2023-02-05T19:38:39.544Z,5.00
2023-02-05T19:41:19.429Z,5.00
2023-02-05T19:43:58.352Z,5.00
2023-02-05T19:46:41.999Z,5.00
2023-02-05T19:49:20.914Z,5.00
2023-02-05T19:51:59.416Z,5.00
2023-02-05T19:54:34.488Z,5.00
2023-02-05T19:57:09.448Z,4.90
2023-02-05T19:59:44.375Z,4.90
2023-02-05T20:02:19.425Z,4.90
2023-02-05T20:04:54.465Z,4.80
2023-02-05T20:07:30.958Z,4.80
2023-02-05T20:10:06.542Z,4.80
2023-02-05T20:12:41.519Z,4.70
2023-02-05T20:15:18.894Z,4.70
2023-02-05T20:17:54.953Z,4.70
2023-02-05T20:20:33.876Z,4.70
2023-02-05T20:23:09.189Z,4.70
2023-02-05T20:25:52.230Z,4.70
2023-02-05T20:28:28.161Z,4.70
2023-02-05T20:31:25.049Z,4.80
2023-02-05T20:34:05.840Z,4.80
2023-02-05T20:36:40.959Z,4.80
2023-02-05T20:39:17.600Z,4.80
2023-02-05T20:41:58.411Z,4.80
2023-02-05T20:44:36.763Z,4.80
2023-02-05T20:47:15.062Z,4.90
2023-02-05T20:49:50.425Z,4.90
2023-02-05T20:52:25.292Z,4.90
2023-02-05T20:55:00.198Z,4.90
2023-02-05T20:57:35.201Z,4.90
2023-02-05T21:00:11.362Z,4.90
2023-02-05T21:02:46.490Z,4.80
2023-02-05T21:05:21.416Z,4.90
2023-02-05T21:07:56.383Z,4.80
2023-02-05T21:10:31.667Z,4.80
2023-02-05T21:13:06.533Z,4.80
2023-02-05T21:15:41.577Z,4.70
2023-02-05T21:18:16.418Z,4.80
2023-02-05T21:20:52.307Z,4.80
2023-02-05T21:23:27.227Z,4.80
2023-02-05T21:26:02.800Z,4.80
2023-02-05T21:28:37.714Z,4.80
2023-02-05T21:31:12.870Z,4.80
2023-02-05T21:33:47.997Z,4.80
2023-02-05T21:36:24.339Z,4.70
2023-02-05T21:38:59.972Z,4.70
2023-02-05T21:41:34.856Z,4.60
2023-02-05T21:44:09.703Z,4.60
2023-02-05T21:46:44.652Z,4.60
2023-02-05T21:49:19.562Z,4.60
2023-02-05T21:51:54.658Z,4.50
2023-02-05T21:54:29.557Z,4.50
2023-02-05T21:57:04.604Z,4.50
2023-02-05T21:59:39.498Z,4.50
2023-02-05T22:02:14.594Z,4.50
2023-02-05T22:04:49.739Z,4.50
2023-02-05T22:07:25.488Z,4.60
2023-02-05T22:10:00.396Z,4.60
2023-02-05T22:12:35.234Z,4.60
2023-02-05T22:15:13.294Z,4.60
2023-02-05T22:17:48.158Z,4.60
2023-02-05T22:20:23.156Z,4.60
2023-02-05T22:22:58.016Z,4.70
2023-02-05T22:25:33.364Z,4.70
2023-02-05T22:28:08.581Z,4.60
2023-02-05T22:30:43.517Z,4.60
2023-02-05T22:33:18.400Z,4.60
2023-02-05T22:35:53.344Z,4.60
2023-02-05T22:38:31.907Z,4.60
2023-02-05T22:41:19.591Z,4.60
2023-02-05T22:43:56.853Z,4.60
2023-02-05T22:46:35.856Z,4.60
2023-02-05T22:49:12.785Z,4.60
2023-02-05T22:51:52.101Z,4.60
2023-02-05T22:54:27.011Z,4.70
2023-02-05T22:57:01.891Z,4.70
2023-02-05T22:59:36.754Z,4.70
2023-02-05T23:02:11.604Z,4.70
2023-02-05T23:04:46.499Z,4.70
2023-02-05T23:07:21.395Z,4.60
2023-02-05T23:09:56.282Z,4.70
2023-02-05T23:12:31.216Z,4.60
2023-02-05T23:15:06.734Z,4.70
2023-02-05T23:17:41.899Z,4.70
2023-02-05T23:20:16.981Z,4.70
2023-02-05T23:22:54.339Z,4.70
2023-02-05T23:25:29.305Z,4.70
2023-02-05T23:28:04.345Z,4.60
2023-02-05T23:30:39.274Z,4.60
2023-02-05T23:33:14.350Z,4.50
2023-02-05T23:35:49.224Z,4.50
2023-02-05T23:38:26.816Z,4.50
2023-02-05T23:41:02.171Z,4.60
2023-02-05T23:43:37.872Z,4.60
2023-02-05T23:46:12.797Z,4.60
2023-02-05T23:48:47.642Z,4.60
2023-02-05T23:51:22.595Z,4.60
2023-02-05T23:53:57.672Z,4.60
2023-02-05T23:56:33.259Z,4.60
2023-02-05T23:59:10.118Z,4.60
